sensor_id;sensor_type;location;lat;lon;timestamp;P1;durP1;ratioP1;P2;durP2;ratioP2
75696;SDS011;64312;44.738;20.612;2023-02-28T00:02:03;20.98;;;10.95;;
75696;SDS011;64312;44.738;20.612;2023-02-28T00:04:29;19.60;;;9.07;;
75696;SDS011;64312;44.738;20.612;2023-02-28T00:06:54;20.83;;;10.15;;
75696;SDS011;64312;44.738;20.612;2023-02-28T00:09:20;20.35;;;10.13;;
75696;SDS011;64312;44.738;20.612;2023-02-28T00:11:45;20.48;;;10.15;;
75696;SDS011;64312;44.738;20.612;2023-02-28T00:14:11;21.85;;;10.88;;
75696;SDS011;64312;44.738;20.612;2023-02-28T00:16:36;19.98;;;9.95;;
75696;SDS011;64312;44.738;20.612;2023-02-28T00:19:02;21.08;;;9.82;;
75696;SDS011;64312;44.738;20.612;2023-02-28T00:21:28;16.85;;;9.05;;
75696;SDS011;64312;44.738;20.612;2023-02-28T00:23:53;19.65;;;8.52;;
75696;SDS011;64312;44.738;20.612;2023-02-28T00:26:19;15.40;;;9.25;;
75696;SDS011;64312;44.738;20.612;2023-02-28T00:28:45;20.77;;;8.57;;
75696;SDS011;64312;44.738;20.612;2023-02-28T00:31:10;15.27;;;8.38;;
75696;SDS011;64312;44.738;20.612;2023-02-28T00:33:36;20.45;;;9.35;;
75696;SDS011;64312;44.738;20.612;2023-02-28T00:36:03;16.85;;;8.90;;
75696;SDS011;64312;44.738;20.612;2023-02-28T00:38:30;20.42;;;10.27;;
75696;SDS011;64312;44.738;20.612;2023-02-28T00:40:55;21.48;;;9.82;;
75696;SDS011;64312;44.738;20.612;2023-02-28T00:43:21;20.60;;;9.95;;
75696;SDS011;64312;44.738;20.612;2023-02-28T00:45:47;19.65;;;9.93;;
75696;SDS011;64312;44.738;20.612;2023-02-28T00:48:13;19.35;;;9.60;;
75696;SDS011;64312;44.738;20.612;2023-02-28T00:50:38;20.77;;;9.10;;
75696;SDS011;64312;44.738;20.612;2023-02-28T00:53:04;17.90;;;8.70;;
75696;SDS011;64312;44.738;20.612;2023-02-28T00:55:29;18.02;;;8.77;;
75696;SDS011;64312;44.738;20.612;2023-02-28T00:57:55;18.75;;;9.00;;
75696;SDS011;64312;44.738;20.612;2023-02-28T01:00:20;16.35;;;8.05;;
75696;SDS011;64312;44.738;20.612;2023-02-28T01:02:49;18.52;;;8.13;;
75696;SDS011;64312;44.738;20.612;2023-02-28T01:05:14;16.55;;;7.95;;
75696;SDS011;64312;44.738;20.612;2023-02-28T01:07:40;13.65;;;7.18;;
75696;SDS011;64312;44.738;20.612;2023-02-28T01:10:05;14.35;;;7.32;;
75696;SDS011;64312;44.738;20.612;2023-02-28T01:12:32;14.40;;;6.93;;
75696;SDS011;64312;44.738;20.612;2023-02-28T01:14:57;15.65;;;7.43;;
75696;SDS011;64312;44.738;20.612;2023-02-28T01:17:23;14.20;;;6.95;;
75696;SDS011;64312;44.738;20.612;2023-02-28T01:19:49;16.38;;;6.93;;
75696;SDS011;64312;44.738;20.612;2023-02-28T01:22:14;15.02;;;6.97;;
75696;SDS011;64312;44.738;20.612;2023-02-28T01:24:41;19.88;;;9.07;;
75696;SDS011;64312;44.738;20.612;2023-02-28T01:27:07;17.52;;;7.60;;
75696;SDS011;64312;44.738;20.612;2023-02-28T01:29:32;16.88;;;6.97;;
75696;SDS011;64312;44.738;20.612;2023-02-28T01:31:58;15.95;;;7.25;;
75696;SDS011;64312;44.738;20.612;2023-02-28T01:34:24;17.70;;;8.20;;
75696;SDS011;64312;44.738;20.612;2023-02-28T01:36:50;15.10;;;7.72;;
75696;SDS011;64312;44.738;20.612;2023-02-28T01:39:17;19.90;;;8.43;;
75696;SDS011;64312;44.738;20.612;2023-02-28T01:41:44;16.33;;;8.45;;
75696;SDS011;64312;44.738;20.612;2023-02-28T01:47:12;14.02;;;7.43;;
75696;SDS011;64312;44.738;20.612;2023-02-28T01:49:39;15.18;;;6.93;;
75696;SDS011;64312;44.738;20.612;2023-02-28T01:52:05;13.73;;;7.10;;
75696;SDS011;64312;44.738;20.612;2023-02-28T01:54:32;12.90;;;6.57;;
75696;SDS011;64312;44.738;20.612;2023-02-28T01:57:04;14.15;;;6.75;;
75696;SDS011;64312;44.738;20.612;2023-02-28T01:59:35;14.15;;;6.57;;
75696;SDS011;64312;44.738;20.612;2023-02-28T02:02:10;14.40;;;5.75;;
75696;SDS011;64312;44.738;20.612;2023-02-28T02:04:41;15.52;;;6.65;;
75696;SDS011;64312;44.738;20.612;2023-02-28T02:07:15;11.38;;;6.20;;
75696;SDS011;64312;44.738;20.612;2023-02-28T02:09:43;15.77;;;7.20;;
75696;SDS011;64312;44.738;20.612;2023-02-28T02:12:45;15.70;;;6.63;;
75696;SDS011;64312;44.738;20.612;2023-02-28T02:17:51;11.82;;;6.38;;
75696;SDS011;64312;44.738;20.612;2023-02-28T02:20:32;13.60;;;6.68;;
75696;SDS011;64312;44.738;20.612;2023-02-28T02:25:54;11.75;;;5.63;;
75696;SDS011;64312;44.738;20.612;2023-02-28T02:36:58;14.77;;;7.22;;
75696;SDS011;64312;44.738;20.612;2023-02-28T02:39:31;17.92;;;8.07;;
75696;SDS011;64312;44.738;20.612;2023-02-28T02:42:11;14.90;;;7.13;;
75696;SDS011;64312;44.738;20.612;2023-02-28T02:44:41;17.52;;;8.75;;
75696;SDS011;64312;44.738;20.612;2023-02-28T02:47:17;17.20;;;7.97;;
75696;SDS011;64312;44.738;20.612;2023-02-28T02:49:50;13.95;;;6.22;;
75696;SDS011;64312;44.738;20.612;2023-02-28T02:52:22;17.60;;;7.10;;
75696;SDS011;64312;44.738;20.612;2023-02-28T02:54:52;15.77;;;6.90;;
75696;SDS011;64312;44.738;20.612;2023-02-28T02:57:27;13.77;;;7.28;;
75696;SDS011;64312;44.738;20.612;2023-02-28T02:59:57;14.00;;;6.57;;
75696;SDS011;64312;44.738;20.612;2023-02-28T03:02:25;12.43;;;5.60;;
75696;SDS011;64312;44.738;20.612;2023-02-28T03:05:00;13.68;;;6.20;;
75696;SDS011;64312;44.738;20.612;2023-02-28T03:07:30;12.02;;;5.88;;
75696;SDS011;64312;44.738;20.612;2023-02-28T03:09:56;11.95;;;6.25;;
75696;SDS011;64312;44.738;20.612;2023-02-28T03:12:23;10.02;;;4.82;;
75696;SDS011;64312;44.738;20.612;2023-02-28T03:18:02;12.25;;;5.80;;
75696;SDS011;64312;44.738;20.612;2023-02-28T03:20:51;13.40;;;7.07;;
75696;SDS011;64312;44.738;20.612;2023-02-28T03:23:53;13.75;;;6.40;;
75696;SDS011;64312;44.738;20.612;2023-02-28T03:26:23;12.25;;;6.10;;
75696;SDS011;64312;44.738;20.612;2023-02-28T03:28:52;11.85;;;5.50;;
75696;SDS011;64312;44.738;20.612;2023-02-28T03:33:58;12.93;;;6.55;;
75696;SDS011;64312;44.738;20.612;2023-02-28T03:36:30;11.70;;;6.00;;
75696;SDS011;64312;44.738;20.612;2023-02-28T03:39:07;12.50;;;6.53;;
75696;SDS011;64312;44.738;20.612;2023-02-28T03:44:24;11.27;;;5.95;;
75696;SDS011;64312;44.738;20.612;2023-02-28T03:47:02;19.63;;;9.07;;
75696;SDS011;64312;44.738;20.612;2023-02-28T03:52:35;14.25;;;6.47;;
75696;SDS011;64312;44.738;20.612;2023-02-28T03:55:07;15.48;;;6.47;;
75696;SDS011;64312;44.738;20.612;2023-02-28T03:57:40;11.50;;;5.90;;
75696;SDS011;64312;44.738;20.612;2023-02-28T04:00:17;12.52;;;6.25;;
75696;SDS011;64312;44.738;20.612;2023-02-28T04:02:46;15.52;;;7.13;;
75696;SDS011;64312;44.738;20.612;2023-02-28T04:05:18;16.13;;;7.25;;
75696;SDS011;64312;44.738;20.612;2023-02-28T04:07:44;14.90;;;6.68;;
75696;SDS011;64312;44.738;20.612;2023-02-28T04:10:11;14.55;;;6.93;;
75696;SDS011;64312;44.738;20.612;2023-02-28T04:12:38;10.93;;;5.38;;
75696;SDS011;64312;44.738;20.612;2023-02-28T04:15:04;12.55;;;5.88;;
75696;SDS011;64312;44.738;20.612;2023-02-28T04:17:30;14.93;;;6.80;;
75696;SDS011;64312;44.738;20.612;2023-02-28T04:19:56;14.43;;;7.45;;
75696;SDS011;64312;44.738;20.612;2023-02-28T04:22:22;19.20;;;8.63;;
75696;SDS011;64312;44.738;20.612;2023-02-28T04:24:51;15.65;;;7.88;;
75696;SDS011;64312;44.738;20.612;2023-02-28T04:27:18;17.98;;;7.90;;
75696;SDS011;64312;44.738;20.612;2023-02-28T04:29:44;14.07;;;7.60;;
75696;SDS011;64312;44.738;20.612;2023-02-28T04:32:09;13.77;;;7.82;;
75696;SDS011;64312;44.738;20.612;2023-02-28T04:34:35;14.05;;;7.97;;
75696;SDS011;64312;44.738;20.612;2023-02-28T04:37:01;14.60;;;7.68;;
75696;SDS011;64312;44.738;20.612;2023-02-28T04:39:28;15.00;;;6.90;;
75696;SDS011;64312;44.738;20.612;2023-02-28T04:41:54;15.88;;;7.38;;
75696;SDS011;64312;44.738;20.612;2023-02-28T04:44:21;13.88;;;7.35;;
75696;SDS011;64312;44.738;20.612;2023-02-28T04:46:47;13.88;;;6.47;;
75696;SDS011;64312;44.738;20.612;2023-02-28T04:49:14;12.32;;;5.82;;
75696;SDS011;64312;44.738;20.612;2023-02-28T04:51:40;11.85;;;5.65;;
75696;SDS011;64312;44.738;20.612;2023-02-28T04:54:06;11.40;;;5.55;;
75696;SDS011;64312;44.738;20.612;2023-02-28T04:56:32;10.02;;;5.38;;
75696;SDS011;64312;44.738;20.612;2023-02-28T04:58:59;11.90;;;5.47;;
75696;SDS011;64312;44.738;20.612;2023-02-28T05:01:32;15.60;;;7.93;;
75696;SDS011;64312;44.738;20.612;2023-02-28T05:06:27;13.50;;;6.80;;
75696;SDS011;64312;44.738;20.612;2023-02-28T05:08:55;12.73;;;5.68;;
75696;SDS011;64312;44.738;20.612;2023-02-28T05:11:31;13.05;;;6.88;;
75696;SDS011;64312;44.738;20.612;2023-02-28T05:14:02;15.68;;;6.82;;
75696;SDS011;64312;44.738;20.612;2023-02-28T05:16:29;14.38;;;6.75;;
75696;SDS011;64312;44.738;20.612;2023-02-28T05:18:55;12.23;;;5.82;;
75696;SDS011;64312;44.738;20.612;2023-02-28T05:21:26;10.05;;;5.00;;
75696;SDS011;64312;44.738;20.612;2023-02-28T05:24:03;12.32;;;5.35;;
75696;SDS011;64312;44.738;20.612;2023-02-28T05:26:30;13.75;;;5.80;;
75696;SDS011;64312;44.738;20.612;2023-02-28T05:28:59;14.93;;;7.20;;
75696;SDS011;64312;44.738;20.612;2023-02-28T05:31:24;26.17;;;10.88;;
75696;SDS011;64312;44.738;20.612;2023-02-28T05:33:50;21.70;;;9.82;;
75696;SDS011;64312;44.738;20.612;2023-02-28T05:36:16;17.10;;;8.10;;
75696;SDS011;64312;44.738;20.612;2023-02-28T05:38:42;19.48;;;9.48;;
75696;SDS011;64312;44.738;20.612;2023-02-28T05:41:08;16.83;;;7.95;;
75696;SDS011;64312;44.738;20.612;2023-02-28T05:43:35;15.77;;;7.50;;
75696;SDS011;64312;44.738;20.612;2023-02-28T05:46:03;18.10;;;8.98;;
75696;SDS011;64312;44.738;20.612;2023-02-28T05:48:30;16.77;;;7.88;;
75696;SDS011;64312;44.738;20.612;2023-02-28T05:50:57;19.10;;;8.88;;
75696;SDS011;64312;44.738;20.612;2023-02-28T05:53:23;20.98;;;9.73;;
75696;SDS011;64312;44.738;20.612;2023-02-28T05:55:49;18.95;;;8.25;;
75696;SDS011;64312;44.738;20.612;2023-02-28T05:58:15;17.92;;;7.75;;
75696;SDS011;64312;44.738;20.612;2023-02-28T06:00:40;22.52;;;10.05;;
75696;SDS011;64312;44.738;20.612;2023-02-28T06:03:06;20.42;;;10.00;;
75696;SDS011;64312;44.738;20.612;2023-02-28T06:05:32;18.23;;;9.43;;
75696;SDS011;64312;44.738;20.612;2023-02-28T06:07:58;19.55;;;9.00;;
75696;SDS011;64312;44.738;20.612;2023-02-28T06:10:24;14.40;;;6.75;;
75696;SDS011;64312;44.738;20.612;2023-02-28T06:12:49;14.77;;;6.93;;
75696;SDS011;64312;44.738;20.612;2023-02-28T06:15:15;15.38;;;7.22;;
75696;SDS011;64312;44.738;20.612;2023-02-28T06:17:42;17.23;;;8.70;;
75696;SDS011;64312;44.738;20.612;2023-02-28T06:20:08;25.20;;;10.00;;
75696;SDS011;64312;44.738;20.612;2023-02-28T06:22:36;20.25;;;9.25;;
75696;SDS011;64312;44.738;20.612;2023-02-28T06:25:02;19.95;;;9.65;;
75696;SDS011;64312;44.738;20.612;2023-02-28T06:27:30;24.55;;;10.43;;
75696;SDS011;64312;44.738;20.612;2023-02-28T06:29:56;20.63;;;10.18;;
75696;SDS011;64312;44.738;20.612;2023-02-28T06:32:22;22.48;;;10.85;;
75696;SDS011;64312;44.738;20.612;2023-02-28T06:34:47;22.10;;;9.50;;
75696;SDS011;64312;44.738;20.612;2023-02-28T06:37:14;29.08;;;12.32;;
75696;SDS011;64312;44.738;20.612;2023-02-28T06:39:39;23.98;;;11.30;;
75696;SDS011;64312;44.738;20.612;2023-02-28T06:42:05;18.08;;;9.27;;
75696;SDS011;64312;44.738;20.612;2023-02-28T06:44:31;21.38;;;9.73;;
75696;SDS011;64312;44.738;20.612;2023-02-28T06:47:01;21.55;;;9.98;;
75696;SDS011;64312;44.738;20.612;2023-02-28T06:49:29;22.85;;;10.07;;
75696;SDS011;64312;44.738;20.612;2023-02-28T06:51:55;34.10;;;12.35;;
75696;SDS011;64312;44.738;20.612;2023-02-28T06:54:21;27.80;;;12.43;;
75696;SDS011;64312;44.738;20.612;2023-02-28T06:56:46;26.85;;;13.15;;
75696;SDS011;64312;44.738;20.612;2023-02-28T06:59:12;22.38;;;11.27;;
75696;SDS011;64312;44.738;20.612;2023-02-28T07:01:38;21.63;;;11.27;;
75696;SDS011;64312;44.738;20.612;2023-02-28T07:04:04;27.38;;;11.02;;
75696;SDS011;64312;44.738;20.612;2023-02-28T07:06:31;24.23;;;10.40;;
75696;SDS011;64312;44.738;20.612;2023-02-28T07:08:57;29.70;;;13.15;;
75696;SDS011;64312;44.738;20.612;2023-02-28T07:11:25;21.25;;;10.40;;
75696;SDS011;64312;44.738;20.612;2023-02-28T07:13:52;27.35;;;12.40;;
75696;SDS011;64312;44.738;20.612;2023-02-28T07:16:19;22.83;;;10.25;;
75696;SDS011;64312;44.738;20.612;2023-02-28T07:18:45;18.88;;;9.50;;
75696;SDS011;64312;44.738;20.612;2023-02-28T07:21:11;21.92;;;10.30;;
75696;SDS011;64312;44.738;20.612;2023-02-28T07:23:36;27.35;;;12.73;;
75696;SDS011;64312;44.738;20.612;2023-02-28T07:26:03;22.23;;;11.38;;
75696;SDS011;64312;44.738;20.612;2023-02-28T07:28:30;23.70;;;10.63;;
75696;SDS011;64312;44.738;20.612;2023-02-28T07:30:56;22.73;;;9.15;;
75696;SDS011;64312;44.738;20.612;2023-02-28T07:33:21;24.27;;;10.60;;
75696;SDS011;64312;44.738;20.612;2023-02-28T07:35:49;18.48;;;9.52;;
75696;SDS011;64312;44.738;20.612;2023-02-28T07:38:15;15.52;;;7.95;;
75696;SDS011;64312;44.738;20.612;2023-02-28T07:40:40;17.40;;;7.65;;
75696;SDS011;64312;44.738;20.612;2023-02-28T07:43:06;15.60;;;8.10;;
75696;SDS011;64312;44.738;20.612;2023-02-28T07:45:32;15.32;;;7.45;;
75696;SDS011;64312;44.738;20.612;2023-02-28T07:47:59;15.23;;;7.72;;
75696;SDS011;64312;44.738;20.612;2023-02-28T07:50:25;14.30;;;6.97;;
75696;SDS011;64312;44.738;20.612;2023-02-28T07:52:57;16.73;;;7.80;;
75696;SDS011;64312;44.738;20.612;2023-02-28T07:55:25;15.43;;;7.47;;
75696;SDS011;64312;44.738;20.612;2023-02-28T07:57:51;12.85;;;6.97;;
75696;SDS011;64312;44.738;20.612;2023-02-28T08:00:17;13.48;;;7.25;;
75696;SDS011;64312;44.738;20.612;2023-02-28T08:02:43;18.15;;;9.65;;
75696;SDS011;64312;44.738;20.612;2023-02-28T08:05:09;16.83;;;8.77;;
75696;SDS011;64312;44.738;20.612;2023-02-28T08:07:35;20.83;;;9.48;;
75696;SDS011;64312;44.738;20.612;2023-02-28T08:10:01;15.77;;;8.65;;
75696;SDS011;64312;44.738;20.612;2023-02-28T08:12:27;12.82;;;6.93;;
75696;SDS011;64312;44.738;20.612;2023-02-28T08:14:53;13.60;;;7.38;;
75696;SDS011;64312;44.738;20.612;2023-02-28T08:17:19;18.05;;;9.15;;
75696;SDS011;64312;44.738;20.612;2023-02-28T08:19:45;20.02;;;9.15;;
75696;SDS011;64312;44.738;20.612;2023-02-28T08:22:11;18.30;;;9.95;;
75696;SDS011;64312;44.738;20.612;2023-02-28T08:24:37;21.30;;;11.40;;
75696;SDS011;64312;44.738;20.612;2023-02-28T08:27:03;18.70;;;8.98;;
75696;SDS011;64312;44.738;20.612;2023-02-28T08:29:28;17.45;;;8.18;;
75696;SDS011;64312;44.738;20.612;2023-02-28T08:31:55;23.63;;;11.30;;
75696;SDS011;64312;44.738;20.612;2023-02-28T08:34:21;25.40;;;11.18;;
75696;SDS011;64312;44.738;20.612;2023-02-28T08:36:48;26.48;;;11.07;;
75696;SDS011;64312;44.738;20.612;2023-02-28T08:39:14;20.40;;;10.43;;
75696;SDS011;64312;44.738;20.612;2023-02-28T08:41:39;18.85;;;11.50;;
75696;SDS011;64312;44.738;20.612;2023-02-28T08:44:06;18.10;;;9.13;;
75696;SDS011;64312;44.738;20.612;2023-02-28T08:46:32;16.90;;;9.27;;
75696;SDS011;64312;44.738;20.612;2023-02-28T08:48:57;23.02;;;11.75;;
75696;SDS011;64312;44.738;20.612;2023-02-28T08:51:25;22.10;;;12.40;;
75696;SDS011;64312;44.738;20.612;2023-02-28T08:53:54;22.17;;;10.90;;
75696;SDS011;64312;44.738;20.612;2023-02-28T08:56:23;23.70;;;12.60;;
75696;SDS011;64312;44.738;20.612;2023-02-28T08:58:49;23.33;;;12.15;;
75696;SDS011;64312;44.738;20.612;2023-02-28T09:03:43;26.85;;;13.05;;
75696;SDS011;64312;44.738;20.612;2023-02-28T09:06:09;27.40;;;11.90;;
75696;SDS011;64312;44.738;20.612;2023-02-28T09:08:36;20.05;;;9.23;;
75696;SDS011;64312;44.738;20.612;2023-02-28T09:11:02;21.23;;;10.32;;
75696;SDS011;64312;44.738;20.612;2023-02-28T09:13:28;26.58;;;12.00;;
75696;SDS011;64312;44.738;20.612;2023-02-28T09:15:57;21.05;;;9.95;;
75696;SDS011;64312;44.738;20.612;2023-02-28T09:18:23;19.58;;;9.30;;
75696;SDS011;64312;44.738;20.612;2023-02-28T09:20:48;21.63;;;9.95;;
75696;SDS011;64312;44.738;20.612;2023-02-28T09:23:15;24.48;;;11.45;;
75696;SDS011;64312;44.738;20.612;2023-02-28T09:25:51;25.23;;;11.27;;
75696;SDS011;64312;44.738;20.612;2023-02-28T09:28:19;24.63;;;11.55;;
75696;SDS011;64312;44.738;20.612;2023-02-28T09:30:46;22.63;;;10.80;;
75696;SDS011;64312;44.738;20.612;2023-02-28T09:33:14;19.60;;;10.10;;
75696;SDS011;64312;44.738;20.612;2023-02-28T09:35:41;27.00;;;10.70;;
75696;SDS011;64312;44.738;20.612;2023-02-28T09:38:08;18.50;;;9.27;;
75696;SDS011;64312;44.738;20.612;2023-02-28T09:40:39;20.42;;;9.73;;
75696;SDS011;64312;44.738;20.612;2023-02-28T09:43:14;20.42;;;9.23;;
75696;SDS011;64312;44.738;20.612;2023-02-28T09:45:42;20.38;;;10.50;;
75696;SDS011;64312;44.738;20.612;2023-02-28T09:48:19;22.02;;;11.38;;
75696;SDS011;64312;44.738;20.612;2023-02-28T09:50:52;21.63;;;10.77;;
75696;SDS011;64312;44.738;20.612;2023-02-28T09:53:30;20.08;;;9.63;;
75696;SDS011;64312;44.738;20.612;2023-02-28T09:58:37;18.23;;;9.10;;
75696;SDS011;64312;44.738;20.612;2023-02-28T10:06:28;21.08;;;10.02;;
75696;SDS011;64312;44.738;20.612;2023-02-28T10:11:43;17.60;;;8.82;;
75696;SDS011;64312;44.738;20.612;2023-02-28T10:14:18;18.67;;;9.63;;
75696;SDS011;64312;44.738;20.612;2023-02-28T10:19:49;20.17;;;9.98;;
75696;SDS011;64312;44.738;20.612;2023-02-28T10:22:18;21.13;;;10.02;;
75696;SDS011;64312;44.738;20.612;2023-02-28T10:24:48;22.20;;;10.27;;
75696;SDS011;64312;44.738;20.612;2023-02-28T10:29:48;17.98;;;8.63;;
75696;SDS011;64312;44.738;20.612;2023-02-28T10:32:16;23.85;;;11.63;;
75696;SDS011;64312;44.738;20.612;2023-02-28T10:34:44;24.70;;;11.18;;
75696;SDS011;64312;44.738;20.612;2023-02-28T10:37:16;23.77;;;12.13;;
75696;SDS011;64312;44.738;20.612;2023-02-28T10:39:45;26.13;;;12.98;;
75696;SDS011;64312;44.738;20.612;2023-02-28T10:42:25;18.92;;;10.05;;
75696;SDS011;64312;44.738;20.612;2023-02-28T10:45:06;24.90;;;11.00;;
75696;SDS011;64312;44.738;20.612;2023-02-28T10:47:33;21.17;;;10.10;;
75696;SDS011;64312;44.738;20.612;2023-02-28T10:50:02;19.33;;;9.10;;
75696;SDS011;64312;44.738;20.612;2023-02-28T10:52:41;18.05;;;9.32;;
75696;SDS011;64312;44.738;20.612;2023-02-28T10:55:14;19.23;;;10.18;;
75696;SDS011;64312;44.738;20.612;2023-02-28T10:57:48;20.13;;;10.27;;
75696;SDS011;64312;44.738;20.612;2023-02-28T11:02:51;25.27;;;12.35;;
75696;SDS011;64312;44.738;20.612;2023-02-28T11:05:30;19.73;;;10.52;;
75696;SDS011;64312;44.738;20.612;2023-02-28T11:08:18;19.77;;;9.68;;
75696;SDS011;64312;44.738;20.612;2023-02-28T11:10:44;24.15;;;11.50;;
75696;SDS011;64312;44.738;20.612;2023-02-28T11:13:19;18.83;;;10.45;;
75696;SDS011;64312;44.738;20.612;2023-02-28T11:15:52;24.08;;;11.98;;
75696;SDS011;64312;44.738;20.612;2023-02-28T11:18:24;25.33;;;13.38;;
75696;SDS011;64312;44.738;20.612;2023-02-28T11:20:55;26.80;;;11.80;;
75696;SDS011;64312;44.738;20.612;2023-02-28T11:23:25;22.17;;;11.02;;
75696;SDS011;64312;44.738;20.612;2023-02-28T11:25:54;30.63;;;13.27;;
75696;SDS011;64312;44.738;20.612;2023-02-28T11:36:18;31.75;;;14.98;;
75696;SDS011;64312;44.738;20.612;2023-02-28T11:38:50;29.13;;;13.83;;
75696;SDS011;64312;44.738;20.612;2023-02-28T11:41:29;27.50;;;13.93;;
75696;SDS011;64312;44.738;20.612;2023-02-28T11:44:15;26.45;;;13.55;;
75696;SDS011;64312;44.738;20.612;2023-02-28T11:52:20;26.70;;;12.27;;
75696;SDS011;64312;44.738;20.612;2023-02-28T11:58:32;24.52;;;11.90;;
75696;SDS011;64312;44.738;20.612;2023-02-28T12:07:26;31.10;;;14.70;;
75696;SDS011;64312;44.738;20.612;2023-02-28T12:20:52;25.30;;;13.68;;
75696;SDS011;64312;44.738;20.612;2023-02-28T12:28:43;43.77;;;22.80;;
75696;SDS011;64312;44.738;20.612;2023-02-28T12:31:25;42.83;;;21.70;;
75696;SDS011;64312;44.738;20.612;2023-02-28T12:34:31;45.30;;;22.38;;
75696;SDS011;64312;44.738;20.612;2023-02-28T12:36:51;43.40;;;22.95;;
75696;SDS011;64312;44.738;20.612;2023-02-28T12:42:01;30.35;;;15.48;;
75696;SDS011;64312;44.738;20.612;2023-02-28T12:44:36;29.13;;;14.80;;
75696;SDS011;64312;44.738;20.612;2023-02-28T12:47:09;26.95;;;14.20;;
75696;SDS011;64312;44.738;20.612;2023-02-28T12:52:19;21.17;;;11.90;;
75696;SDS011;64312;44.738;20.612;2023-02-28T12:54:55;31.08;;;15.35;;
75696;SDS011;64312;44.738;20.612;2023-02-28T12:59:59;29.27;;;15.02;;
75696;SDS011;64312;44.738;20.612;2023-02-28T13:11:24;28.08;;;12.65;;
75696;SDS011;64312;44.738;20.612;2023-02-28T13:13:56;34.20;;;16.77;;
75696;SDS011;64312;44.738;20.612;2023-02-28T13:16:27;29.55;;;14.57;;
75696;SDS011;64312;44.738;20.612;2023-02-28T13:18:56;29.02;;;14.57;;
75696;SDS011;64312;44.738;20.612;2023-02-28T13:21:41;28.15;;;13.85;;
75696;SDS011;64312;44.738;20.612;2023-02-28T13:24:10;27.13;;;13.00;;
75696;SDS011;64312;44.738;20.612;2023-02-28T13:42:36;35.90;;;18.00;;
75696;SDS011;64312;44.738;20.612;2023-02-28T13:52:48;29.77;;;12.95;;
75696;SDS011;64312;44.738;20.612;2023-02-28T13:55:24;28.98;;;13.48;;
75696;SDS011;64312;44.738;20.612;2023-02-28T14:06:58;22.95;;;11.38;;
75696;SDS011;64312;44.738;20.612;2023-02-28T14:09:32;21.52;;;11.27;;
75696;SDS011;64312;44.738;20.612;2023-02-28T14:15:23;23.60;;;11.60;;
75696;SDS011;64312;44.738;20.612;2023-02-28T14:17:54;23.58;;;12.18;;
75696;SDS011;64312;44.738;20.612;2023-02-28T14:20:22;23.45;;;11.02;;
75696;SDS011;64312;44.738;20.612;2023-02-28T14:22:53;20.92;;;9.88;;
75696;SDS011;64312;44.738;20.612;2023-02-28T14:28:44;30.58;;;16.48;;
75696;SDS011;64312;44.738;20.612;2023-02-28T14:31:17;28.08;;;15.52;;
75696;SDS011;64312;44.738;20.612;2023-02-28T14:33:59;21.25;;;12.38;;
75696;SDS011;64312;44.738;20.612;2023-02-28T14:36:39;18.02;;;9.40;;
75696;SDS011;64312;44.738;20.612;2023-02-28T14:39:10;16.10;;;8.32;;
75696;SDS011;64312;44.738;20.612;2023-02-28T14:41:40;16.33;;;8.18;;
75696;SDS011;64312;44.738;20.612;2023-02-28T14:44:23;17.90;;;8.73;;
75696;SDS011;64312;44.738;20.612;2023-02-28T14:46:53;14.55;;;7.20;;
75696;SDS011;64312;44.738;20.612;2023-02-28T14:49:30;20.60;;;9.40;;
75696;SDS011;64312;44.738;20.612;2023-02-28T14:52:19;27.13;;;11.95;;
75696;SDS011;64312;44.738;20.612;2023-02-28T14:54:53;22.27;;;9.55;;
75696;SDS011;64312;44.738;20.612;2023-02-28T14:57:22;26.55;;;10.10;;
75696;SDS011;64312;44.738;20.612;2023-02-28T14:59:57;18.67;;;9.23;;
75696;SDS011;64312;44.738;20.612;2023-02-28T15:02:24;19.83;;;9.45;;
75696;SDS011;64312;44.738;20.612;2023-02-28T15:04:54;22.20;;;9.65;;
75696;SDS011;64312;44.738;20.612;2023-02-28T15:07:22;20.75;;;9.27;;
75696;SDS011;64312;44.738;20.612;2023-02-28T15:10:11;20.33;;;9.20;;
75696;SDS011;64312;44.738;20.612;2023-02-28T15:12:37;22.58;;;9.20;;
75696;SDS011;64312;44.738;20.612;2023-02-28T15:15:05;25.15;;;9.70;;
75696;SDS011;64312;44.738;20.612;2023-02-28T15:17:33;21.05;;;10.48;;
75696;SDS011;64312;44.738;20.612;2023-02-28T15:19:59;32.38;;;14.18;;
75696;SDS011;64312;44.738;20.612;2023-02-28T15:22:31;32.80;;;12.77;;
75696;SDS011;64312;44.738;20.612;2023-02-28T15:25:01;28.42;;;12.15;;
75696;SDS011;64312;44.738;20.612;2023-02-28T15:27:29;21.33;;;10.60;;
75696;SDS011;64312;44.738;20.612;2023-02-28T15:29:58;14.20;;;8.50;;
75696;SDS011;64312;44.738;20.612;2023-02-28T15:35:16;15.05;;;7.60;;
75696;SDS011;64312;44.738;20.612;2023-02-28T15:37:48;16.35;;;8.05;;
75696;SDS011;64312;44.738;20.612;2023-02-28T15:43:00;14.38;;;7.85;;
75696;SDS011;64312;44.738;20.612;2023-02-28T15:45:41;15.27;;;7.25;;
75696;SDS011;64312;44.738;20.612;2023-02-28T15:48:22;14.45;;;8.15;;
75696;SDS011;64312;44.738;20.612;2023-02-28T15:50:54;15.57;;;7.65;;
75696;SDS011;64312;44.738;20.612;2023-02-28T15:53:23;16.52;;;9.05;;
75696;SDS011;64312;44.738;20.612;2023-02-28T15:55:55;15.45;;;8.32;;
75696;SDS011;64312;44.738;20.612;2023-02-28T15:58:25;15.82;;;8.68;;
75696;SDS011;64312;44.738;20.612;2023-02-28T16:01:01;15.55;;;9.00;;
75696;SDS011;64312;44.738;20.612;2023-02-28T16:03:39;17.95;;;10.10;;
75696;SDS011;64312;44.738;20.612;2023-02-28T16:09:05;17.77;;;9.32;;
75696;SDS011;64312;44.738;20.612;2023-02-28T16:11:34;19.08;;;9.82;;
75696;SDS011;64312;44.738;20.612;2023-02-28T16:14:04;40.75;;;21.95;;
75696;SDS011;64312;44.738;20.612;2023-02-28T16:16:30;34.10;;;17.92;;
75696;SDS011;64312;44.738;20.612;2023-02-28T16:18:56;33.03;;;15.10;;
75696;SDS011;64312;44.738;20.612;2023-02-28T16:21:22;24.00;;;12.45;;
75696;SDS011;64312;44.738;20.612;2023-02-28T16:23:50;22.95;;;13.00;;
75696;SDS011;64312;44.738;20.612;2023-02-28T16:26:18;22.25;;;11.35;;
75696;SDS011;64312;44.738;20.612;2023-02-28T16:28:46;20.30;;;11.00;;
75696;SDS011;64312;44.738;20.612;2023-02-28T16:31:12;19.85;;;9.95;;
75696;SDS011;64312;44.738;20.612;2023-02-28T16:33:42;31.85;;;17.17;;
75696;SDS011;64312;44.738;20.612;2023-02-28T16:36:17;43.50;;;20.38;;
75696;SDS011;64312;44.738;20.612;2023-02-28T16:38:45;118.05;;;46.33;;
75696;SDS011;64312;44.738;20.612;2023-02-28T16:41:20;86.70;;;35.45;;
75696;SDS011;64312;44.738;20.612;2023-02-28T16:43:49;68.82;;;28.80;;
75696;SDS011;64312;44.738;20.612;2023-02-28T16:46:16;109.88;;;41.75;;
75696;SDS011;64312;44.738;20.612;2023-02-28T16:48:46;128.63;;;48.15;;
75696;SDS011;64312;44.738;20.612;2023-02-28T16:51:16;100.72;;;40.40;;
75696;SDS011;64312;44.738;20.612;2023-02-28T16:53:43;94.28;;;36.10;;
75696;SDS011;64312;44.738;20.612;2023-02-28T16:56:17;101.55;;;38.22;;
75696;SDS011;64312;44.738;20.612;2023-02-28T16:58:45;99.90;;;36.40;;
75696;SDS011;64312;44.738;20.612;2023-02-28T17:01:12;98.65;;;40.60;;
75696;SDS011;64312;44.738;20.612;2023-02-28T17:03:38;89.30;;;37.90;;
75696;SDS011;64312;44.738;20.612;2023-02-28T17:06:05;75.82;;;33.00;;